Time,TemperatureF,DewpointF,PressureIn,WindDirection,WindDirectionDegrees,WindSpeedMPH,WindSpeedGustMPH,Humidity,HourlyPrecipIn,Conditions,Clouds,dailyrainin,SolarRadiationWatts/m^2,SoftwareType,DateUTC
2013-07-06 00:02:00,55.0,47.0,-100.00,East,83,0.0,2.0,74,0.00,,,0.04,41.000000,,2013-07-06 08:02:00,
2013-07-06 00:11:00,55.0,47.0,-100.00,East,83,0.0,2.0,74,0.00,,,0.04,41.000000,,2013-07-06 08:11:00,
2013-07-06 01:11:00,48.0,43.0,-100.00,SE,124,0.0,0.0,84,0.00,,,0.04,8.000000,,2013-07-06 09:11:00,
2013-07-06 03:43:00,44.0,42.0,-100.00,East,86,1.0,7.0,92,-99.99,,,0.04,0.000000,,2013-07-06 11:43:00,
2013-07-06 03:53:00,44.0,42.0,-100.00,East,86,1.0,7.0,92,-99.99,,,0.04,0.000000,,2013-07-06 11:53:00,
2013-07-06 04:01:00,44.0,42.0,-100.00,East,86,1.0,7.0,92,-99.99,,,0.04,0.000000,,2013-07-06 12:01:00,
2013-07-06 04:11:00,44.0,42.0,-100.00,East,86,1.0,7.0,92,-99.99,,,0.04,0.000000,,2013-07-06 12:11:00,
2013-07-06 07:43:00,47.0,46.0,-100.00,SE,125,0.0,2.0,96,0.00,,,0.04,106.000000,,2013-07-06 15:43:00,
2013-07-06 07:53:00,47.0,46.0,-100.00,SE,125,0.0,2.0,96,0.00,,,0.04,106.000000,,2013-07-06 15:53:00,
2013-07-06 08:12:00,47.0,46.0,-100.00,SE,125,0.0,2.0,96,0.00,,,0.04,106.000000,,2013-07-06 16:12:00,
2013-07-06 08:58:00,55.0,49.0,-100.00,East,89,2.0,5.0,79,0.00,,,0.04,201.000000,,2013-07-06 16:58:00,
2013-07-06 09:05:00,55.0,49.0,-100.00,East,89,2.0,5.0,79,0.00,,,0.04,201.000000,,2013-07-06 17:05:00,
2013-07-06 09:14:00,55.0,49.0,-100.00,East,89,2.0,5.0,79,0.00,,,0.04,201.000000,,2013-07-06 17:14:00,
2013-07-06 09:58:00,63.0,48.0,-100.00,ENE,70,1.0,6.0,58,0.00,,,0.04,387.000000,,2013-07-06 17:58:00,
2013-07-06 10:05:00,63.0,48.0,-100.00,ENE,70,1.0,6.0,58,0.00,,,0.04,387.000000,,2013-07-06 18:05:00,
2013-07-06 10:14:00,63.0,48.0,-100.00,ENE,70,1.0,6.0,58,0.00,,,0.04,387.000000,,2013-07-06 18:14:00,
2013-07-06 10:59:00,65.0,49.0,-100.00,ESE,113,1.0,5.0,57,0.00,,,0.04,340.000000,,2013-07-06 18:59:00,
2013-07-06 12:14:00,73.0,50.0,-100.00,ESE,121,2.0,9.0,44,0.00,,,0.04,626.000000,,2013-07-06 20:14:00,
2013-07-06 13:05:00,72.0,46.0,-100.00,South,183,2.0,8.0,39,0.00,,,0.04,610.000000,,2013-07-06 21:05:00,
2013-07-06 13:14:00,72.0,46.0,-100.00,South,183,2.0,8.0,39,0.00,,,0.04,610.000000,,2013-07-06 21:14:00,
2013-07-06 14:04:00,74.0,45.0,-100.00,NE,55,2.0,6.0,36,0.00,,,0.04,655.000000,,2013-07-06 22:04:00,
2013-07-06 14:58:00,78.0,41.0,-100.00,East,83,2.0,6.0,27,0.00,,,0.04,952.000000,,2013-07-06 22:58:00,
2013-07-06 15:05:00,78.0,41.0,-100.00,East,83,2.0,6.0,27,0.00,,,0.04,952.000000,,2013-07-06 23:05:00,
2013-07-06 15:57:00,77.0,41.0,-100.00,SW,231,2.0,8.0,28,0.00,,,0.01,847.000000,,2013-07-06 23:57:00,
2013-07-06 16:06:00,77.0,41.0,-100.00,SW,231,2.0,8.0,28,0.00,,,0.01,847.000000,,2013-07-07 00:06:00,
2013-07-06 18:04:00,80.0,45.0,-100.00,SSW,197,2.0,7.0,29,-99.99,,,0.00,811.000000,,2013-07-07 02:04:00,
2013-07-06 18:13:00,80.0,45.0,-100.00,SSW,197,2.0,7.0,29,-99.99,,,0.00,811.000000,,2013-07-07 02:13:00,
2013-07-06 18:52:00,73.0,49.0,-100.00,NW,311,1.0,6.0,43,0.00,,,0.00,238.000000,,2013-07-07 02:52:00,
2013-07-06 20:01:00,76.0,46.0,-100.00,NW,318,0.0,4.0,34,0.00,,,0.00,349.000000,,2013-07-07 04:01:00,
2013-07-06 20:11:00,76.0,46.0,-100.00,NW,318,0.0,4.0,34,0.00,,,0.00,349.000000,,2013-07-07 04:11:00,
2013-07-06 20:41:00,74.0,44.0,-100.00,WNW,288,1.0,7.0,34,0.00,,,0.00,234.000000,,2013-07-07 04:41:00,
2013-07-06 20:51:00,74.0,44.0,-100.00,WNW,288,1.0,7.0,34,0.00,,,0.00,234.000000,,2013-07-07 04:51:00,
2013-07-06 21:01:00,74.0,44.0,-100.00,WNW,288,1.0,7.0,34,0.00,,,0.00,234.000000,,2013-07-07 05:01:00,
2013-07-06 21:11:00,74.0,44.0,-100.00,WNW,288,1.0,7.0,34,0.00,,,0.00,234.000000,,2013-07-07 05:11:00,
2013-07-06 21:41:00,70.0,41.0,-100.00,West,280,0.0,4.0,35,0.00,,,-99.99,161.000000,,2013-07-07 05:41:00,
2013-07-06 21:51:00,70.0,41.0,-100.00,West,280,0.0,4.0,35,0.00,,,-99.99,161.000000,,2013-07-07 05:51:00,
2013-07-06 22:01:00,70.0,41.0,-100.00,West,280,0.0,4.0,35,0.00,,,-99.99,161.000000,,2013-07-07 06:01:00,
2013-07-06 22:11:00,70.0,41.0,-100.00,West,280,0.0,4.0,35,0.00,,,-99.99,161.000000,,2013-07-07 06:11:00,
2013-07-06 22:52:00,60.0,45.0,-100.00,West,274,0.0,1.0,58,0.00,,,0.00,31.000000,,2013-07-07 06:52:00,
2013-07-06 23:01:00,60.0,45.0,-100.00,West,274,0.0,1.0,58,0.00,,,0.00,31.000000,,2013-07-07 07:01:00,
2013-07-06 23:11:00,60.0,45.0,-100.00,West,274,0.0,1.0,58,0.00,,,0.00,31.000000,,2013-07-07 07:11:00,